createdAt,value
2024-04-04T00:02:00.340Z,12.50
2024-04-04T00:04:29.883Z,12.49
2024-04-04T00:06:57.763Z,12.51
2024-04-04T00:09:25.701Z,12.55
2024-04-04T00:11:53.631Z,12.55
2024-04-04T00:14:21.548Z,12.60
2024-04-04T00:16:49.503Z,12.62
2024-04-04T00:19:17.450Z,12.62
2024-04-04T00:21:45.425Z,12.58
2024-04-04T00:24:13.333Z,12.44
2024-04-04T00:26:41.473Z,12.37
2024-04-04T00:29:09.406Z,12.34
2024-04-04T00:31:37.354Z,12.30
2024-04-04T00:34:05.311Z,12.29
2024-04-04T00:36:33.250Z,12.26
2024-04-04T00:39:01.078Z,12.19
2024-04-04T00:41:29.823Z,12.17
2024-04-04T00:43:57.720Z,12.23
2024-04-04T00:46:25.653Z,12.28
2024-04-04T00:48:54.382Z,12.30
2024-04-04T00:51:22.775Z,12.32
2024-04-04T00:53:50.645Z,12.32
2024-04-04T00:56:18.626Z,12.37
2024-04-04T00:58:47.947Z,12.42
2024-04-04T01:01:15.836Z,12.46
2024-04-04T01:03:43.838Z,12.53
2024-04-04T01:06:11.823Z,12.53
2024-04-04T01:08:39.658Z,12.52
2024-04-04T01:11:07.577Z,12.54
2024-04-04T01:13:35.491Z,12.55
2024-04-04T01:16:03.604Z,12.57
2024-04-04T01:18:31.458Z,12.55
2024-04-04T01:20:59.378Z,12.52
2024-04-04T01:23:27.247Z,12.48
2024-04-04T01:25:55.084Z,12.46
2024-04-04T01:28:22.976Z,12.47
2024-04-04T01:30:50.914Z,12.46
2024-04-04T01:33:18.834Z,12.41
2024-04-04T01:35:46.737Z,12.39
2024-04-04T01:38:14.580Z,12.39
2024-04-04T01:40:42.427Z,12.35
2024-04-04T01:43:10.311Z,12.30
2024-04-04T01:45:39.585Z,12.24
2024-04-04T01:48:07.829Z,12.15
2024-04-04T01:50:35.722Z,12.05
2024-04-04T01:53:03.995Z,12.01
2024-04-04T01:55:31.975Z,12.00
2024-04-04T01:58:00.865Z,11.97
2024-04-04T02:00:28.796Z,11.86
2024-04-04T02:02:56.949Z,11.85
2024-04-04T02:05:24.850Z,11.79
2024-04-04T02:07:52.754Z,11.77
2024-04-04T02:10:20.617Z,11.80
2024-04-04T02:12:49.023Z,11.79
2024-04-04T02:15:17.851Z,11.74
2024-04-04T02:17:45.709Z,11.68
2024-04-04T02:20:13.566Z,11.62
2024-04-04T02:22:41.463Z,11.63
2024-04-04T02:25:10.683Z,11.65
2024-04-04T02:27:38.652Z,11.66
2024-04-04T02:30:07.527Z,11.70
2024-04-04T02:32:35.438Z,11.73
2024-04-04T02:35:06.027Z,11.72
2024-04-04T02:37:33.892Z,11.76
2024-04-04T02:40:02.271Z,11.82
2024-04-04T02:42:31.168Z,11.88
2024-04-04T02:44:58.988Z,11.84
2024-04-04T02:47:26.851Z,11.88
2024-04-04T02:49:55.782Z,11.91
2024-04-04T02:52:23.763Z,11.92
2024-04-04T02:54:52.561Z,11.93
2024-04-04T02:57:20.462Z,11.93
2024-04-04T02:59:48.337Z,11.95
2024-04-04T03:02:16.265Z,11.97
2024-04-04T03:04:44.193Z,11.95
2024-04-04T03:07:12.046Z,11.89
2024-04-04T03:09:39.886Z,11.86
2024-04-04T03:12:08.589Z,11.86
2024-04-04T03:14:36.466Z,11.85
2024-04-04T03:17:04.589Z,11.85
2024-04-04T03:19:32.480Z,11.88
2024-04-04T03:22:00.391Z,11.87
2024-04-04T03:24:28.338Z,11.87
2024-04-04T03:26:56.286Z,11.91
2024-04-04T03:29:24.112Z,11.93
2024-04-04T03:31:52.015Z,11.93
2024-04-04T03:34:19.877Z,11.96
2024-04-04T03:36:50.843Z,11.93
2024-04-04T03:39:18.746Z,11.88
2024-04-04T03:41:46.646Z,11.86
2024-04-04T03:44:14.535Z,11.84
2024-04-04T03:46:43.148Z,11.81
2024-04-04T03:49:11.630Z,11.76
2024-04-04T03:51:40.062Z,11.72
2024-04-04T03:54:07.990Z,11.66
2024-04-04T03:56:35.841Z,11.63
2024-04-04T03:59:03.699Z,11.63
2024-04-04T04:01:32.494Z,11.61
2024-04-04T04:04:00.551Z,11.58
2024-04-04T04:06:28.434Z,11.55
2024-04-04T04:08:56.349Z,11.45
2024-04-04T04:11:24.335Z,11.42
2024-04-04T04:13:52.196Z,11.38
2024-04-04T04:16:20.145Z,11.39
2024-04-04T04:18:50.658Z,11.41
2024-04-04T04:21:25.879Z,11.39
2024-04-04T04:23:55.899Z,11.39
2024-04-04T04:26:23.794Z,11.35
2024-04-04T04:28:51.912Z,11.34
2024-04-04T04:31:33.955Z,11.33
2024-04-04T04:34:06.347Z,11.38
2024-04-04T04:36:37.734Z,11.43
2024-04-04T04:39:05.693Z,11.44
2024-04-04T04:41:33.626Z,11.44
2024-04-04T04:44:01.507Z,11.44
2024-04-04T04:46:29.456Z,11.46
2024-04-04T04:48:57.405Z,11.43
2024-04-04T04:51:25.278Z,11.48
2024-04-04T04:53:53.159Z,11.51
2024-04-04T04:56:21.330Z,11.57
2024-04-04T04:58:49.396Z,11.62
2024-04-04T05:01:17.586Z,11.69
2024-04-04T05:03:46.926Z,11.80
2024-04-04T05:06:16.304Z,11.92
2024-04-04T05:08:44.206Z,12.04
2024-04-04T05:11:12.243Z,12.12
2024-04-04T05:13:40.130Z,12.19
2024-04-04T05:16:08.066Z,12.31
2024-04-04T05:18:36.047Z,12.38
2024-04-04T05:21:08.024Z,12.47
2024-04-04T05:23:36.083Z,12.53
2024-04-04T05:26:06.353Z,12.62
2024-04-04T05:28:35.996Z,12.74
2024-04-04T05:31:04.238Z,12.86
2024-04-04T05:33:32.159Z,12.93
2024-04-04T05:36:00.095Z,13.01
2024-04-04T05:38:27.941Z,13.13
2024-04-04T05:40:55.832Z,13.27
2024-04-04T05:43:23.829Z,13.36
2024-04-04T05:45:51.748Z,13.44
2024-04-04T05:48:19.571Z,13.54
2024-04-04T05:50:47.630Z,13.64
2024-04-04T05:53:17.043Z,13.75
2024-04-04T05:55:45.486Z,13.78
2024-04-04T05:58:13.347Z,13.94
2024-04-04T06:00:41.224Z,13.99
2024-04-04T06:03:09.096Z,14.08
2024-04-04T06:05:37.667Z,14.11
2024-04-04T06:08:05.979Z,14.09
2024-04-04T06:10:33.787Z,14.22
2024-04-04T06:13:01.820Z,14.31
2024-04-04T06:15:29.778Z,14.39
2024-04-04T06:17:57.644Z,14.50
2024-04-04T06:20:25.622Z,14.62
2024-04-04T06:22:53.619Z,14.64
2024-04-04T06:25:21.454Z,14.68
2024-04-04T06:27:52.267Z,14.77
2024-04-04T06:30:21.154Z,14.88
2024-04-04T06:32:49.085Z,14.88
2024-04-04T06:35:16.976Z,14.89
2024-04-04T06:37:48.672Z,14.89
2024-04-04T06:40:17.190Z,14.93
2024-04-04T06:42:45.201Z,14.93
2024-04-04T06:45:13.113Z,15.03
2024-04-04T06:47:54.712Z,15.13
2024-04-04T06:50:22.627Z,15.20
2024-04-04T06:52:50.774Z,15.15
2024-04-04T06:55:18.925Z,15.34
2024-04-04T06:57:47.655Z,15.50
2024-04-04T07:00:16.365Z,15.53
2024-04-04T07:02:44.393Z,15.60
2024-04-04T07:05:12.395Z,15.74
2024-04-04T07:07:40.680Z,15.92
2024-04-04T07:10:09.577Z,16.05
2024-04-04T07:12:37.508Z,16.19
2024-04-04T07:15:05.822Z,16.33
2024-04-04T07:17:33.719Z,16.52
2024-04-04T07:20:01.604Z,16.70
2024-04-04T07:22:29.534Z,16.93
2024-04-04T07:24:57.443Z,17.16
2024-04-04T07:27:25.427Z,17.27
2024-04-04T07:29:55.656Z,17.39
2024-04-04T07:32:23.622Z,17.45
2024-04-04T07:34:51.871Z,17.52
2024-04-04T07:37:20.383Z,17.58
2024-04-04T07:39:48.983Z,17.66
2024-04-04T07:42:17.548Z,17.72
2024-04-04T07:44:45.518Z,17.87
2024-04-04T07:47:13.588Z,18.11
2024-04-04T07:49:41.557Z,18.28
2024-04-04T07:52:09.584Z,18.39
2024-04-04T07:54:37.512Z,18.50
2024-04-04T07:57:05.412Z,18.37
2024-04-04T07:59:34.826Z,18.27
2024-04-04T08:02:03.320Z,18.47
2024-04-04T08:04:31.166Z,18.56
2024-04-04T08:06:59.103Z,18.59
2024-04-04T08:09:27.064Z,18.74
2024-04-04T08:11:54.944Z,18.80
2024-04-04T08:14:24.193Z,18.95
2024-04-04T08:16:52.157Z,19.08
2024-04-04T08:19:20.032Z,19.07
2024-04-04T08:21:48.554Z,19.16
2024-04-04T08:24:16.507Z,19.10
2024-04-04T08:26:44.788Z,19.06
2024-04-04T08:29:14.217Z,19.16
2024-04-04T08:31:42.413Z,19.27
2024-04-04T08:34:10.791Z,19.19
2024-04-04T08:36:38.959Z,19.25
2024-04-04T08:39:07.607Z,19.31
2024-04-04T08:41:36.471Z,19.23
2024-04-04T08:44:06.823Z,19.19
2024-04-04T08:46:37.325Z,19.09
2024-04-04T08:49:05.898Z,19.20
2024-04-04T08:51:33.891Z,19.23
2024-04-04T08:54:02.374Z,19.27
2024-04-04T08:56:31.379Z,19.39
2024-04-04T08:58:59.318Z,19.37
2024-04-04T09:01:30.468Z,19.34
2024-04-04T09:04:02.326Z,19.24
2024-04-04T09:06:32.187Z,19.28
2024-04-04T09:09:00.075Z,19.16
2024-04-04T09:11:29.606Z,19.23
2024-04-04T09:14:13.561Z,19.32
2024-04-04T09:16:45.872Z,19.43
2024-04-04T09:19:19.596Z,19.64
2024-04-04T09:21:47.779Z,19.82
2024-04-04T09:24:17.848Z,20.00
2024-04-04T09:26:46.946Z,20.16
2024-04-04T09:29:23.760Z,20.15
2024-04-04T09:31:55.329Z,20.19
2024-04-04T09:34:25.359Z,20.17
2024-04-04T09:36:55.119Z,20.17
2024-04-04T09:39:24.906Z,20.26
2024-04-04T09:41:58.346Z,20.27
2024-04-04T09:44:26.507Z,20.43
2024-04-04T09:46:55.373Z,20.57
2024-04-04T09:49:24.478Z,20.73
2024-04-04T09:51:56.398Z,20.87
2024-04-04T09:54:37.422Z,20.98
2024-04-04T09:57:09.148Z,21.09
2024-04-04T09:59:37.039Z,21.23
2024-04-04T10:02:06.215Z,21.46
2024-04-04T10:04:38.960Z,21.64
2024-04-04T10:07:06.959Z,21.74
2024-04-04T10:09:45.884Z,21.58
2024-04-04T10:12:18.143Z,21.55
2024-04-04T10:14:53.470Z,21.82
2024-04-04T10:17:21.710Z,21.88
2024-04-04T10:19:50.256Z,22.02
2024-04-04T10:22:18.529Z,22.02
2024-04-04T10:24:46.395Z,22.19
2024-04-04T10:27:14.770Z,22.26
2024-04-04T10:29:53.645Z,22.02
2024-04-04T10:32:24.329Z,21.64
2024-04-04T10:35:02.808Z,21.84
2024-04-04T10:37:31.350Z,21.88
2024-04-04T10:39:59.365Z,22.03
2024-04-04T10:42:31.097Z,22.12
2024-04-04T10:44:59.765Z,22.12
2024-04-04T10:47:27.690Z,22.25
2024-04-04T10:49:59.540Z,22.27
2024-04-04T10:52:34.052Z,22.31
2024-04-04T10:55:02.211Z,22.35
2024-04-04T10:57:30.904Z,22.32
2024-04-04T11:00:10.126Z,22.32
2024-04-04T11:02:38.824Z,22.34
2024-04-04T11:05:09.000Z,22.43
2024-04-04T11:07:40.065Z,22.30
2024-04-04T11:10:08.950Z,22.17
2024-04-04T11:12:38.382Z,22.12
2024-04-04T11:15:07.693Z,22.12
2024-04-04T11:17:36.147Z,22.09
2024-04-04T11:20:08.132Z,22.11
2024-04-04T11:22:37.238Z,22.13
2024-04-04T11:25:07.273Z,22.28
2024-04-04T11:27:37.412Z,22.38
2024-04-04T11:30:07.969Z,22.20
2024-04-04T11:32:36.958Z,21.93
2024-04-04T11:35:06.279Z,22.32
2024-04-04T11:37:34.185Z,22.40
2024-04-04T11:40:04.634Z,22.56
2024-04-04T11:42:32.704Z,22.68
2024-04-04T11:45:00.681Z,22.74
2024-04-04T11:47:28.730Z,22.72
2024-04-04T11:49:56.597Z,22.76
2024-04-04T11:52:24.579Z,22.72
2024-04-04T11:54:52.606Z,22.79
2024-04-04T11:57:22.097Z,22.73
2024-04-04T11:59:50.044Z,22.84
2024-04-04T12:02:17.999Z,22.59
2024-04-04T12:04:45.867Z,22.65
2024-04-04T12:07:14.906Z,22.47
2024-04-04T12:09:42.843Z,22.64
2024-04-04T12:12:10.731Z,22.74
2024-04-04T12:14:38.553Z,22.83
2024-04-04T12:17:06.484Z,22.82
2024-04-04T12:19:35.524Z,22.78
2024-04-04T12:22:03.816Z,22.44
2024-04-04T12:24:32.031Z,22.60
2024-04-04T12:27:00.814Z,22.58
2024-04-04T12:29:28.827Z,22.53
2024-04-04T12:31:57.439Z,22.55
2024-04-04T12:34:27.135Z,22.58
2024-04-04T12:36:56.170Z,22.62
2024-04-04T12:39:24.200Z,22.60
2024-04-04T12:41:53.226Z,22.56
2024-04-04T12:44:21.119Z,22.64
2024-04-04T12:46:49.204Z,22.62
2024-04-04T12:49:17.632Z,22.69
2024-04-04T12:51:45.711Z,22.75
2024-04-04T12:54:13.843Z,22.80
2024-04-04T12:56:42.414Z,22.85
2024-04-04T12:59:10.281Z,22.94
2024-04-04T13:01:38.479Z,22.80
2024-04-04T13:04:06.305Z,22.88
2024-04-04T13:06:34.145Z,22.94
2024-04-04T13:09:02.337Z,22.89
2024-04-04T13:11:30.324Z,22.88
2024-04-04T13:13:58.425Z,22.80
2024-04-04T13:16:27.011Z,22.75
2024-04-04T13:18:54.984Z,22.70
2024-04-04T13:21:23.772Z,22.71
2024-04-04T13:23:52.559Z,22.70
2024-04-04T13:26:21.348Z,22.64
2024-04-04T13:28:49.320Z,22.53
2024-04-04T13:31:17.710Z,22.41
2024-04-04T13:33:45.763Z,22.25
2024-04-04T13:36:13.741Z,22.10
2024-04-04T13:38:52.297Z,21.99
2024-04-04T13:41:24.217Z,21.99
2024-04-04T13:43:52.594Z,21.95
2024-04-04T13:46:20.583Z,21.91
2024-04-04T13:48:48.536Z,21.84
2024-04-04T13:51:16.506Z,21.81
2024-04-04T13:53:44.472Z,21.82
2024-04-04T13:56:12.435Z,21.81
2024-04-04T13:58:40.513Z,21.84
2024-04-04T14:01:09.830Z,21.84
2024-04-04T14:03:37.945Z,21.81
2024-04-04T14:06:06.093Z,21.71
2024-04-04T14:08:34.317Z,21.70
2024-04-04T14:11:02.344Z,21.67
2024-04-04T14:13:30.306Z,21.66
2024-04-04T14:15:58.181Z,21.64
2024-04-04T14:18:42.936Z,21.69
2024-04-04T14:21:14.056Z,21.83
2024-04-04T14:23:42.336Z,22.02
2024-04-04T14:26:10.666Z,22.34
2024-04-04T14:28:38.506Z,22.72
2024-04-04T14:31:06.395Z,23.01
2024-04-04T14:33:34.627Z,23.15
2024-04-04T14:36:06.277Z,23.24
2024-04-04T14:38:34.371Z,23.24
2024-04-04T14:41:03.712Z,23.22
2024-04-04T14:43:31.706Z,23.15
2024-04-04T14:45:59.691Z,23.00
2024-04-04T14:48:28.868Z,22.85
2024-04-04T14:50:59.584Z,22.74
2024-04-04T14:53:32.390Z,22.66
2024-04-04T14:56:10.914Z,22.55
2024-04-04T14:58:39.185Z,22.43
2024-04-04T15:01:10.220Z,22.30
2024-04-04T15:03:41.243Z,22.16
2024-04-04T15:06:11.288Z,22.01
2024-04-04T15:08:48.262Z,21.87
2024-04-04T15:11:17.162Z,21.71
2024-04-04T15:13:45.124Z,21.62
2024-04-04T15:16:13.398Z,21.56
2024-04-04T15:18:41.471Z,21.44
2024-04-04T15:21:09.546Z,21.35
2024-04-04T15:23:37.563Z,21.32
2024-04-04T15:26:05.548Z,21.25
2024-04-04T15:28:33.416Z,21.18
2024-04-04T15:31:02.017Z,21.10
2024-04-04T15:33:30.573Z,20.99
2024-04-04T15:35:58.401Z,20.92
2024-04-04T15:38:26.308Z,20.87
2024-04-04T15:40:54.228Z,20.83
2024-04-04T15:43:23.767Z,20.77
2024-04-04T15:45:51.692Z,20.68
2024-04-04T15:48:19.768Z,20.57
2024-04-04T15:50:47.729Z,20.52
2024-04-04T15:53:16.972Z,20.39
2024-04-04T15:55:45.104Z,20.32
2024-04-04T15:58:13.584Z,20.25
2024-04-04T16:00:41.776Z,20.17
2024-04-04T16:03:09.726Z,20.07
2024-04-04T16:05:39.235Z,20.03
2024-04-04T16:08:07.818Z,19.97
2024-04-04T16:10:35.886Z,19.85
2024-04-04T16:13:05.083Z,19.80
2024-04-04T16:15:33.158Z,19.72
2024-04-04T16:18:04.349Z,19.69
2024-04-04T16:20:33.203Z,19.65
2024-04-04T16:23:01.189Z,19.61
2024-04-04T16:25:29.131Z,19.58
2024-04-04T16:27:59.662Z,19.54
2024-04-04T16:30:27.837Z,19.48
2024-04-04T16:32:55.803Z,19.44
2024-04-04T16:35:23.988Z,19.38
2024-04-04T16:37:51.948Z,19.32
2024-04-04T16:40:20.052Z,19.29
2024-04-04T16:42:48.828Z,19.27
2024-04-04T16:45:17.699Z,19.24
2024-04-04T16:47:45.981Z,19.22
2024-04-04T16:50:13.955Z,19.18
2024-04-04T16:52:41.913Z,19.12
2024-04-04T16:55:09.989Z,19.10
2024-04-04T16:57:38.158Z,19.07
2024-04-04T17:00:07.819Z,19.06
2024-04-04T17:02:35.847Z,19.04
2024-04-04T17:05:04.116Z,19.05
2024-04-04T17:07:32.078Z,19.06
2024-04-04T17:10:00.055Z,19.08
2024-04-04T17:12:28.224Z,19.08
2024-04-04T17:14:56.714Z,19.06
2024-04-04T17:17:26.142Z,19.03
2024-04-04T17:20:00.703Z,19.00
2024-04-04T17:22:30.051Z,18.97
2024-04-04T17:24:58.120Z,18.94
2024-04-04T17:27:26.114Z,18.94
2024-04-04T17:29:54.350Z,18.89
2024-04-04T17:32:22.320Z,18.79
2024-04-04T17:34:51.723Z,18.72
2024-04-04T17:37:19.702Z,18.71
2024-04-04T17:39:48.991Z,18.72
2024-04-04T17:42:16.957Z,18.76
2024-04-04T17:44:45.545Z,18.76
2024-04-04T17:47:13.523Z,18.73
2024-04-04T17:49:41.484Z,18.70
2024-04-04T17:52:09.554Z,18.70
2024-04-04T17:54:37.729Z,18.66
2024-04-04T17:57:06.004Z,18.64
2024-04-04T17:59:34.082Z,18.63
2024-04-04T18:02:02.051Z,18.60
2024-04-04T18:04:30.553Z,18.58
2024-04-04T18:06:58.597Z,18.56
2024-04-04T18:09:26.976Z,18.54
2024-04-04T18:11:55.048Z,18.50
2024-04-04T18:14:23.017Z,18.43
2024-04-04T18:16:51.399Z,18.37
2024-04-04T18:19:20.203Z,18.34
2024-04-04T18:21:48.170Z,18.32
2024-04-04T18:24:16.222Z,18.31
2024-04-04T18:26:44.193Z,18.26
2024-04-04T18:29:12.267Z,18.17
2024-04-04T18:31:41.565Z,18.12
2024-04-04T18:34:09.551Z,18.10
2024-04-04T18:36:37.708Z,18.06
2024-04-04T18:39:06.189Z,18.02
2024-04-04T18:41:35.805Z,17.98
2024-04-04T18:44:03.971Z,17.88
2024-04-04T18:46:32.487Z,17.70
2024-04-04T18:49:00.525Z,17.58
2024-04-04T18:51:28.598Z,17.21
2024-04-04T18:53:56.567Z,17.07
2024-04-04T18:56:25.044Z,16.96
2024-04-04T18:58:56.396Z,16.86
2024-04-04T19:01:24.693Z,16.79
2024-04-04T19:03:52.612Z,16.70
2024-04-04T19:06:20.440Z,16.71
2024-04-04T19:08:48.311Z,16.73
2024-04-04T19:11:16.152Z,16.79
2024-04-04T19:13:44.167Z,16.90
2024-04-04T19:16:13.231Z,17.01
2024-04-04T19:18:41.797Z,17.06
2024-04-04T19:21:09.705Z,17.04
2024-04-04T19:23:37.683Z,16.97
2024-04-04T19:26:08.345Z,16.97
2024-04-04T19:28:38.702Z,17.06
2024-04-04T19:31:09.918Z,17.07
2024-04-04T19:33:40.884Z,17.09
2024-04-04T19:36:09.765Z,17.16
2024-04-04T19:38:38.029Z,17.17
2024-04-04T19:41:06.050Z,17.19
2024-04-04T19:43:37.554Z,17.22
2024-04-04T19:46:06.654Z,17.25
2024-04-04T19:48:36.151Z,17.22
2024-04-04T19:51:04.543Z,17.20
2024-04-04T19:53:33.528Z,17.05
2024-04-04T19:56:01.499Z,16.70
2024-04-04T19:58:29.516Z,16.43
2024-04-04T20:01:00.298Z,16.51
2024-04-04T20:03:28.376Z,16.49
2024-04-04T20:06:00.137Z,16.46
2024-04-04T20:08:32.399Z,16.45
2024-04-04T20:11:07.166Z,16.42
2024-04-04T20:13:36.222Z,16.40
2024-04-04T20:16:07.015Z,16.39
2024-04-04T20:18:35.043Z,16.42
2024-04-04T20:21:03.102Z,16.46
2024-04-04T20:23:31.273Z,16.50
2024-04-04T20:26:00.368Z,16.56
2024-04-04T20:28:29.223Z,16.60
2024-04-04T20:30:59.178Z,16.62
2024-04-04T20:33:27.467Z,16.63
2024-04-04T20:35:55.530Z,16.64
2024-04-04T20:38:23.495Z,16.62
2024-04-04T20:40:51.567Z,16.60
2024-04-04T20:43:19.641Z,16.57
2024-04-04T20:45:50.783Z,16.51
2024-04-04T20:48:19.898Z,16.43
2024-04-04T20:50:48.056Z,16.38
2024-04-04T20:53:16.224Z,16.33
2024-04-04T20:55:44.395Z,16.27
2024-04-04T20:58:13.593Z,16.23
2024-04-04T21:00:41.773Z,16.22
2024-04-04T21:03:10.042Z,16.18
2024-04-04T21:05:38.435Z,16.15
2024-04-04T21:08:06.977Z,16.16
2024-04-04T21:10:35.218Z,16.17
2024-04-04T21:13:03.382Z,16.15
2024-04-04T21:15:31.440Z,16.17
2024-04-04T21:18:06.916Z,16.15
2024-04-04T21:20:39.768Z,16.12
2024-04-04T21:23:08.141Z,16.08
2024-04-04T21:25:36.497Z,16.07
2024-04-04T21:28:05.067Z,16.01
2024-04-04T21:30:33.183Z,15.98
2024-04-04T21:33:01.143Z,15.98
2024-04-04T21:35:29.109Z,16.01
2024-04-04T21:37:57.198Z,16.03
2024-04-04T21:40:25.075Z,16.00
2024-04-04T21:42:53.296Z,15.93
2024-04-04T21:45:21.162Z,15.91
2024-04-04T21:47:49.160Z,15.90
2024-04-04T21:50:17.243Z,15.90
2024-04-04T21:52:45.205Z,15.85
2024-04-04T21:55:13.900Z,15.82
2024-04-04T21:57:41.959Z,15.81
2024-04-04T22:00:11.371Z,15.78
2024-04-04T22:02:43.223Z,15.78
2024-04-04T22:05:12.466Z,15.81
2024-04-04T22:07:40.457Z,15.78
2024-04-04T22:10:09.652Z,15.75
2024-04-04T22:12:37.775Z,15.73
2024-04-04T22:15:06.557Z,15.68
2024-04-04T22:17:34.829Z,15.65
2024-04-04T22:20:02.752Z,15.61
2024-04-04T22:22:31.420Z,15.59
2024-04-04T22:24:59.454Z,15.56
2024-04-04T22:27:27.633Z,15.52
2024-04-04T22:29:55.811Z,15.51
2024-04-04T22:32:23.976Z,15.48
2024-04-04T22:34:52.261Z,15.47
2024-04-04T22:37:20.524Z,15.43
2024-04-04T22:39:48.596Z,15.40
2024-04-04T22:42:16.666Z,15.35
2024-04-04T22:44:44.635Z,15.25
2024-04-04T22:47:12.608Z,15.21
2024-04-04T22:49:40.596Z,15.17
2024-04-04T22:52:08.746Z,15.14
2024-04-04T22:54:38.252Z,15.12
2024-04-04T22:57:07.562Z,15.09
2024-04-04T22:59:36.440Z,15.02
2024-04-04T23:02:04.788Z,14.92
2024-04-04T23:04:32.801Z,14.84
2024-04-04T23:07:00.864Z,14.72
2024-04-04T23:09:31.643Z,14.63
2024-04-04T23:12:00.330Z,14.56
2024-04-04T23:14:28.451Z,14.51
2024-04-04T23:16:56.527Z,14.47
2024-04-04T23:19:24.598Z,14.44
2024-04-04T23:21:52.672Z,14.38
2024-04-04T23:24:20.844Z,14.34
2024-04-04T23:26:49.122Z,14.31
2024-04-04T23:29:17.397Z,14.27
2024-04-04T23:31:45.674Z,14.23
2024-04-04T23:34:13.649Z,14.22
2024-04-04T23:36:41.714Z,14.17
2024-04-04T23:39:09.755Z,14.13
2024-04-04T23:41:37.866Z,14.09
2024-04-04T23:44:07.159Z,14.06
2024-04-04T23:46:35.035Z,14.00
2024-04-04T23:49:03.091Z,13.94
2024-04-04T23:51:31.372Z,13.86
2024-04-04T23:53:59.552Z,13.81
2024-04-04T23:56:28.845Z,13.77
2024-04-04T23:58:57.435Z,13.71
